createdAt,value
2017-03-24T00:00:07.574Z,32.12
2017-03-24T00:01:13.317Z,33.97
2017-03-24T00:02:18.865Z,36.20
2017-03-24T00:03:23.654Z,36.12
2017-03-24T00:04:29.241Z,35.38
2017-03-24T00:05:34.704Z,35.85
2017-03-24T00:06:39.659Z,35.55
2017-03-24T00:07:45.147Z,35.38
2017-03-24T00:08:50.698Z,34.87
2017-03-24T00:09:56.265Z,37.37
2017-03-24T00:11:01.029Z,37.07
2017-03-24T00:12:06.568Z,31.90
2017-03-24T00:13:13.011Z,36.75
2017-03-24T00:14:19.702Z,39.45
2017-03-24T00:15:24.570Z,36.07
2017-03-24T00:16:30.029Z,36.60
2017-03-24T00:17:36.398Z,36.67
2017-03-24T00:18:41.222Z,35.17
2017-03-24T00:19:46.793Z,34.40
2017-03-24T00:20:51.688Z,34.77
2017-03-24T00:21:58.001Z,36.35
2017-03-24T00:23:03.412Z,32.08
2017-03-24T00:24:08.167Z,36.02
2017-03-24T00:25:13.821Z,36.50
2017-03-24T00:26:19.446Z,35.15
2017-03-24T00:27:25.086Z,34.55
2017-03-24T00:28:30.713Z,33.32
2017-03-24T00:29:37.177Z,37.15
2017-03-24T00:30:41.913Z,36.80
2017-03-24T00:31:47.373Z,36.67
2017-03-24T00:32:52.824Z,34.58
2017-03-24T00:33:57.750Z,36.85
2017-03-24T00:35:03.435Z,33.55
2017-03-24T00:36:09.105Z,33.02
2017-03-24T00:37:15.356Z,35.40
2017-03-24T00:38:20.889Z,34.60
2017-03-24T00:39:25.595Z,36.23
2017-03-24T00:40:31.840Z,35.03
2017-03-24T00:41:36.677Z,34.42
2017-03-24T00:42:43.043Z,33.45
2017-03-24T00:43:48.630Z,35.72
2017-03-24T00:44:54.297Z,35.98
2017-03-24T00:45:58.973Z,36.75
2017-03-24T00:47:05.418Z,34.28
2017-03-24T00:48:10.306Z,33.67
2017-03-24T00:49:16.471Z,37.98
2017-03-24T00:50:21.302Z,36.48
2017-03-24T00:51:27.565Z,38.03
2017-03-24T00:52:33.252Z,35.67
2017-03-24T00:53:38.071Z,39.42
2017-03-24T00:54:44.457Z,34.00
2017-03-24T00:55:50.000Z,37.72
2017-03-24T00:56:54.884Z,38.22
2017-03-24T00:58:00.521Z,37.88
2017-03-24T00:59:06.080Z,36.07
2017-03-24T01:00:12.504Z,34.70
2017-03-24T01:01:17.324Z,35.30
2017-03-24T01:02:23.661Z,35.38
2017-03-24T01:03:29.295Z,37.85
2017-03-24T01:04:34.180Z,37.10
2017-03-24T01:05:40.669Z,37.37
2017-03-24T01:06:45.408Z,35.35
2017-03-24T01:07:51.779Z,39.65
2017-03-24T01:08:56.521Z,35.55
2017-03-24T01:10:02.146Z,37.05
2017-03-24T01:11:07.683Z,38.83
2017-03-24T01:12:13.287Z,35.92
2017-03-24T01:13:18.010Z,36.67
2017-03-24T01:14:23.695Z,38.08
2017-03-24T01:15:29.279Z,37.93
2017-03-24T01:16:34.093Z,40.02
2017-03-24T01:17:39.405Z,32.62
2017-03-24T01:18:44.107Z,38.73
2017-03-24T01:19:49.658Z,33.18
2017-03-24T01:20:55.109Z,38.15
2017-03-24T01:22:00.713Z,38.38
2017-03-24T01:23:06.228Z,33.50
2017-03-24T01:24:11.748Z,37.52
2017-03-24T01:25:18.029Z,35.78
2017-03-24T01:26:22.815Z,37.47
2017-03-24T01:27:29.214Z,36.15
2017-03-24T01:28:34.825Z,36.38
2017-03-24T01:29:40.437Z,34.02
2017-03-24T01:30:45.375Z,38.63
2017-03-24T01:31:51.505Z,34.17
2017-03-24T01:32:57.090Z,35.32
2017-03-24T01:34:01.877Z,35.15
2017-03-24T01:35:07.552Z,32.87
2017-03-24T01:36:13.827Z,35.18
2017-03-24T01:37:19.331Z,34.95
2017-03-24T01:38:24.917Z,32.27
2017-03-24T01:39:29.686Z,33.82
2017-03-24T01:40:35.238Z,33.78
2017-03-24T01:41:40.910Z,36.32
2017-03-24T01:42:46.497Z,28.98
2017-03-24T01:43:52.929Z,34.08
2017-03-24T01:44:58.318Z,34.12
2017-03-24T01:46:03.445Z,31.58
2017-03-24T01:47:09.162Z,33.42
2017-03-24T01:48:14.668Z,31.63
2017-03-24T01:49:20.322Z,31.22
2017-03-24T01:50:25.961Z,33.57
2017-03-24T01:51:31.493Z,32.63
2017-03-24T01:52:37.160Z,34.10
2017-03-24T01:53:43.611Z,28.43
2017-03-24T01:54:48.301Z,34.25
2017-03-24T01:55:58.056Z,34.78
2017-03-24T01:57:03.426Z,33.95
2017-03-24T01:58:08.933Z,33.35
2017-03-24T01:59:15.132Z,31.33
2017-03-24T02:00:20.858Z,32.43
2017-03-24T02:01:25.761Z,31.72
2017-03-24T02:02:31.241Z,31.33
2017-03-24T02:03:36.894Z,35.42
2017-03-24T02:04:42.108Z,32.33
2017-03-24T02:05:46.885Z,32.90
2017-03-24T02:06:53.306Z,32.12
2017-03-24T02:07:58.010Z,31.33
2017-03-24T02:09:04.610Z,33.92
2017-03-24T02:10:09.498Z,33.70
2017-03-24T02:11:15.641Z,31.77
2017-03-24T02:12:21.251Z,35.68
2017-03-24T02:13:26.163Z,33.68
2017-03-24T02:14:32.510Z,33.73
2017-03-24T02:15:37.232Z,32.68
2017-03-24T02:16:43.630Z,33.38
2017-03-24T02:17:49.137Z,33.82
2017-03-24T02:18:54.825Z,35.42
2017-03-24T02:20:00.532Z,34.80
2017-03-24T02:21:05.377Z,34.27
2017-03-24T02:22:11.029Z,35.88
2017-03-24T02:23:16.649Z,31.35
2017-03-24T02:24:22.062Z,36.03
2017-03-24T02:25:27.688Z,33.87
2017-03-24T02:26:34.073Z,33.38
2017-03-24T02:27:39.681Z,33.10
2017-03-24T02:28:45.190Z,35.22
2017-03-24T02:29:50.026Z,34.33
2017-03-24T02:30:56.449Z,34.52
2017-03-24T02:32:02.137Z,36.57
2017-03-24T02:33:08.441Z,33.63
2017-03-24T02:34:14.186Z,31.80
2017-03-24T02:35:19.628Z,36.32
2017-03-24T02:36:24.685Z,33.83
2017-03-24T02:37:30.238Z,35.40
2017-03-24T02:38:36.695Z,34.43
2017-03-24T02:39:42.114Z,33.45
2017-03-24T02:40:47.016Z,34.28
2017-03-24T02:41:52.724Z,34.03
2017-03-24T02:42:58.741Z,36.75
2017-03-24T02:44:03.709Z,33.62
2017-03-24T02:45:09.102Z,33.70
2017-03-24T02:46:14.778Z,36.13
2017-03-24T02:47:20.373Z,36.53
2017-03-24T02:48:25.933Z,39.17
2017-03-24T02:49:32.362Z,37.28
2017-03-24T02:50:37.105Z,36.80
2017-03-24T02:51:43.377Z,34.73
2017-03-24T02:52:49.017Z,35.88
2017-03-24T02:53:53.868Z,38.32
2017-03-24T02:55:00.041Z,35.78
2017-03-24T02:56:05.643Z,35.47
2017-03-24T02:57:11.339Z,37.15
2017-03-24T02:58:16.945Z,36.32
2017-03-24T02:59:23.354Z,34.92
2017-03-24T03:00:28.285Z,38.82
2017-03-24T03:01:33.975Z,36.95
2017-03-24T03:02:39.564Z,36.47
2017-03-24T03:03:46.039Z,39.50
2017-03-24T03:04:50.705Z,36.50
2017-03-24T03:05:55.373Z,36.85
2017-03-24T03:07:01.033Z,35.30
2017-03-24T03:08:06.553Z,37.10
2017-03-24T03:09:13.075Z,36.73
2017-03-24T03:10:18.729Z,36.45
2017-03-24T03:11:23.545Z,38.37
2017-03-24T03:12:29.260Z,35.88
2017-03-24T03:13:35.686Z,35.15
2017-03-24T03:14:40.657Z,34.23
2017-03-24T03:15:46.307Z,36.65
2017-03-24T03:16:52.645Z,35.83
2017-03-24T03:17:57.359Z,35.50
2017-03-24T03:19:03.780Z,35.53
2017-03-24T03:20:08.777Z,36.40
2017-03-24T03:21:14.982Z,38.10
2017-03-24T03:22:20.717Z,34.17
2017-03-24T03:23:26.318Z,34.00
2017-03-24T03:24:31.121Z,36.20
2017-03-24T03:25:36.852Z,33.80
2017-03-24T03:26:43.080Z,34.02
2017-03-24T03:27:48.700Z,33.88
2017-03-24T03:28:53.505Z,36.55
2017-03-24T03:29:59.174Z,36.70
2017-03-24T03:31:05.748Z,35.55
2017-03-24T03:32:10.434Z,35.02
2017-03-24T03:33:15.866Z,36.48
2017-03-24T03:34:21.451Z,35.83
2017-03-24T03:35:27.191Z,35.70
2017-03-24T03:36:33.518Z,39.40
2017-03-24T03:37:38.282Z,39.42
2017-03-24T03:38:43.774Z,35.15
2017-03-24T03:39:49.406Z,34.55
2017-03-24T03:40:56.453Z,33.38
2017-03-24T03:42:02.150Z,38.78
2017-03-24T03:43:07.785Z,36.70
2017-03-24T03:44:12.754Z,34.90
2017-03-24T03:45:18.678Z,35.80
2017-03-24T03:46:24.000Z,35.93
2017-03-24T03:47:29.589Z,37.12
2017-03-24T03:48:35.848Z,34.05
2017-03-24T03:49:40.806Z,35.20
2017-03-24T03:50:46.221Z,33.20
2017-03-24T03:51:51.890Z,37.43
2017-03-24T03:52:57.585Z,34.15
2017-03-24T03:54:03.743Z,35.05
2017-03-24T03:55:08.679Z,37.72
2017-03-24T03:56:14.278Z,38.77
2017-03-24T03:57:19.886Z,37.05
2017-03-24T03:58:26.217Z,37.03
2017-03-24T03:59:30.981Z,34.95
2017-03-24T04:00:37.409Z,35.65
2017-03-24T04:01:43.081Z,36.27
2017-03-24T04:02:48.646Z,37.28
2017-03-24T04:03:54.221Z,37.42
2017-03-24T04:04:59.901Z,39.48
2017-03-24T04:06:05.679Z,41.42
2017-03-24T04:07:10.700Z,37.13
2017-03-24T04:08:16.269Z,36.05
2017-03-24T04:09:22.490Z,36.87
2017-03-24T04:10:28.172Z,38.57
2017-03-24T04:11:32.940Z,40.48
2017-03-24T04:12:38.475Z,38.25
2017-03-24T04:13:43.424Z,40.08
2017-03-24T04:14:49.689Z,38.90
2017-03-24T04:15:56.089Z,38.77
2017-03-24T04:17:00.961Z,42.25
2017-03-24T04:18:06.569Z,38.63
2017-03-24T04:19:12.266Z,39.50
2017-03-24T04:20:18.611Z,41.53
2017-03-24T04:21:24.182Z,38.02
2017-03-24T04:22:29.830Z,40.28
2017-03-24T04:23:36.122Z,40.30
2017-03-24T04:24:40.897Z,37.25
2017-03-24T04:25:47.377Z,40.45
2017-03-24T04:26:53.084Z,39.38
2017-03-24T04:27:59.433Z,37.30
2017-03-24T04:29:04.965Z,40.93
2017-03-24T04:30:09.788Z,40.37
2017-03-24T04:31:16.098Z,39.37
2017-03-24T04:32:20.910Z,38.73
2017-03-24T04:33:27.341Z,37.98
2017-03-24T04:34:32.281Z,39.40
2017-03-24T04:35:37.010Z,43.13
2017-03-24T04:36:43.316Z,40.00
2017-03-24T04:37:48.977Z,37.48
2017-03-24T04:38:53.746Z,39.57
2017-03-24T04:40:00.099Z,37.43
2017-03-24T04:41:05.608Z,37.13
2017-03-24T04:42:10.377Z,38.48
2017-03-24T04:43:16.568Z,36.13
2017-03-24T04:44:21.401Z,38.38
2017-03-24T04:45:27.617Z,34.63
2017-03-24T04:46:33.178Z,37.87
2017-03-24T04:47:38.783Z,37.63
2017-03-24T04:48:43.440Z,36.65
2017-03-24T04:49:49.032Z,35.28
2017-03-24T04:50:55.298Z,37.58
2017-03-24T04:52:00.143Z,38.15
2017-03-24T04:53:06.560Z,34.28
2017-03-24T04:54:12.978Z,31.83
2017-03-24T04:55:18.460Z,36.37
2017-03-24T04:56:23.377Z,37.85
2017-03-24T04:57:28.810Z,34.48
2017-03-24T04:58:33.710Z,33.78
2017-03-24T04:59:40.021Z,36.68
2017-03-24T05:00:45.755Z,34.80
2017-03-24T05:01:50.546Z,36.98
2017-03-24T05:02:55.403Z,36.47
2017-03-24T05:04:01.054Z,37.37
2017-03-24T05:05:06.671Z,36.12
2017-03-24T05:06:13.005Z,33.88
2017-03-24T05:07:18.778Z,35.70
2017-03-24T05:08:23.766Z,34.70
2017-03-24T05:09:30.046Z,34.83
2017-03-24T05:10:34.888Z,34.08
2017-03-24T05:11:40.586Z,36.37
2017-03-24T05:12:46.216Z,34.52
2017-03-24T05:13:51.803Z,33.75
2017-03-24T05:14:56.594Z,31.87
2017-03-24T05:16:02.208Z,34.63
2017-03-24T05:17:06.940Z,33.47
2017-03-24T05:18:12.489Z,34.60
2017-03-24T05:19:18.890Z,32.10
2017-03-24T05:20:23.905Z,33.78
2017-03-24T05:21:30.238Z,31.93
2017-03-24T05:22:34.975Z,30.75
2017-03-24T05:23:41.416Z,35.05
2017-03-24T05:24:46.161Z,31.17
2017-03-24T05:25:52.473Z,31.00
2017-03-24T05:26:57.273Z,32.75
2017-03-24T05:28:02.897Z,33.45
2017-03-24T05:29:09.199Z,34.37
2017-03-24T05:30:13.905Z,28.83
2017-03-24T05:31:20.329Z,31.27
2017-03-24T05:32:26.014Z,29.57
2017-03-24T05:33:31.630Z,29.97
2017-03-24T05:34:37.280Z,30.37
2017-03-24T05:35:43.724Z,32.80
2017-03-24T05:36:48.538Z,31.78
2017-03-24T05:37:54.142Z,29.98
2017-03-24T05:38:59.697Z,31.32
2017-03-24T05:40:05.233Z,31.53
2017-03-24T05:41:10.836Z,31.38
2017-03-24T05:42:15.825Z,31.55
2017-03-24T05:43:22.189Z,30.43
2017-03-24T05:44:27.023Z,32.85
2017-03-24T05:45:33.258Z,31.38
2017-03-24T05:46:38.028Z,34.52
2017-03-24T05:47:43.551Z,34.43
2017-03-24T05:48:49.095Z,30.40
2017-03-24T05:49:55.573Z,32.57
2017-03-24T05:51:01.160Z,30.75
2017-03-24T05:52:06.772Z,29.80
2017-03-24T05:53:11.736Z,28.57
2017-03-24T05:54:17.278Z,30.55
2017-03-24T05:55:22.845Z,29.05
2017-03-24T05:56:29.201Z,29.72
2017-03-24T05:57:34.733Z,30.60
2017-03-24T05:58:39.474Z,30.07
2017-03-24T05:59:45.166Z,29.97
2017-03-24T06:00:50.841Z,31.13
2017-03-24T06:01:56.281Z,26.17
2017-03-24T06:03:01.822Z,28.70
2017-03-24T06:04:07.522Z,28.20
2017-03-24T06:05:12.360Z,29.73
2017-03-24T06:06:17.898Z,28.08
2017-03-24T06:07:24.169Z,26.23
2017-03-24T06:08:29.077Z,27.10
2017-03-24T06:09:35.614Z,30.68
2017-03-24T06:10:41.238Z,27.80
2017-03-24T06:11:46.930Z,29.63
2017-03-24T06:12:52.574Z,28.00
2017-03-24T06:13:58.112Z,25.12
2017-03-24T06:15:03.658Z,29.18
2017-03-24T06:16:09.120Z,27.73
2017-03-24T06:17:14.619Z,26.08
2017-03-24T06:18:19.461Z,28.25
2017-03-24T06:19:24.878Z,28.43
2017-03-24T06:20:31.305Z,26.65
2017-03-24T06:21:36.725Z,29.93
2017-03-24T06:22:42.452Z,26.40
2017-03-24T06:23:48.133Z,27.73
2017-03-24T06:24:53.721Z,27.98
2017-03-24T06:25:58.738Z,26.32
2017-03-24T06:27:05.003Z,28.22
2017-03-24T06:28:09.754Z,30.53
2017-03-24T06:29:15.443Z,26.98
2017-03-24T06:30:20.989Z,29.33
2017-03-24T06:31:27.384Z,27.48
2017-03-24T06:32:32.154Z,24.43
2017-03-24T06:33:38.519Z,24.90
2017-03-24T06:34:43.520Z,27.55
2017-03-24T06:35:49.965Z,26.53
2017-03-24T06:36:54.877Z,23.58
2017-03-24T06:38:00.071Z,24.92
2017-03-24T06:39:06.122Z,24.73
2017-03-24T06:40:12.569Z,26.22
2017-03-24T06:41:18.085Z,24.10
2017-03-24T06:42:23.129Z,23.40
2017-03-24T06:43:28.613Z,27.32
2017-03-24T06:44:34.197Z,25.38
2017-03-24T06:45:39.822Z,29.15
2017-03-24T06:46:44.766Z,28.05
2017-03-24T06:47:50.397Z,24.98
2017-03-24T06:48:55.259Z,26.10
2017-03-24T06:50:00.870Z,24.28
2017-03-24T06:51:05.528Z,25.85
2017-03-24T06:52:11.872Z,23.37
2017-03-24T06:53:18.335Z,24.20
2017-03-24T06:54:23.824Z,25.25
2017-03-24T06:55:28.550Z,23.93
2017-03-24T06:56:34.124Z,25.05
2017-03-24T06:57:39.574Z,23.42
2017-03-24T06:58:45.410Z,26.58
2017-03-24T06:59:50.933Z,27.12
2017-03-24T07:00:57.318Z,25.43
2017-03-24T07:02:02.028Z,23.60
2017-03-24T07:03:07.581Z,25.88
2017-03-24T07:04:13.809Z,24.22
2017-03-24T07:05:19.441Z,22.40
2017-03-24T07:06:24.925Z,24.83
2017-03-24T07:07:29.646Z,24.07
2017-03-24T07:08:36.061Z,27.90
2017-03-24T07:09:42.633Z,23.67
2017-03-24T07:10:48.267Z,24.47
2017-03-24T07:11:52.949Z,25.80
2017-03-24T07:12:59.335Z,22.18
2017-03-24T07:14:05.037Z,25.53
2017-03-24T07:15:10.095Z,23.92
2017-03-24T07:16:15.538Z,22.38
2017-03-24T07:17:22.141Z,23.67
2017-03-24T07:18:27.752Z,22.22
2017-03-24T07:19:33.177Z,22.83
2017-03-24T07:20:37.993Z,22.87
2017-03-24T07:21:43.532Z,21.92
2017-03-24T07:22:48.172Z,23.63
2017-03-24T07:23:54.504Z,25.12
2017-03-24T07:25:00.104Z,21.02
2017-03-24T07:26:05.068Z,19.33
2017-03-24T07:27:11.360Z,16.55
2017-03-24T07:28:16.848Z,19.82
2017-03-24T07:29:22.662Z,18.30
2017-03-24T07:30:27.569Z,18.77
2017-03-24T07:31:33.122Z,20.25
2017-03-24T07:32:37.853Z,20.18
2017-03-24T07:33:44.229Z,20.25
2017-03-24T07:34:48.996Z,18.67
2017-03-24T07:35:53.752Z,16.68
2017-03-24T07:37:00.144Z,18.77
2017-03-24T07:38:04.897Z,19.22
2017-03-24T07:39:11.320Z,18.55
2017-03-24T07:40:16.154Z,17.68
2017-03-24T07:41:21.725Z,17.48
2017-03-24T07:42:27.401Z,18.70
2017-03-24T07:43:33.446Z,21.45
2017-03-24T07:44:39.246Z,18.12
2017-03-24T07:45:44.749Z,17.50
2017-03-24T07:46:49.448Z,17.15
2017-03-24T07:47:54.133Z,18.50
2017-03-24T07:49:00.482Z,17.95
2017-03-24T07:50:06.228Z,19.80
2017-03-24T07:51:11.717Z,18.27
2017-03-24T07:52:16.648Z,22.08
2017-03-24T07:53:22.324Z,18.72
2017-03-24T07:54:28.476Z,18.68
2017-03-24T07:55:34.141Z,19.40
2017-03-24T07:56:39.137Z,18.40
2017-03-24T07:57:44.599Z,18.03
2017-03-24T07:58:49.400Z,18.63
2017-03-24T07:59:54.800Z,17.83
2017-03-24T08:01:00.337Z,18.20
2017-03-24T08:02:05.339Z,19.57
2017-03-24T08:03:10.928Z,18.17
2017-03-24T08:04:16.672Z,16.43
2017-03-24T08:05:22.208Z,15.28
2017-03-24T08:06:26.907Z,17.77
2017-03-24T08:07:33.279Z,17.67
2017-03-24T08:08:39.009Z,15.98
2017-03-24T08:09:46.436Z,16.92
2017-03-24T08:10:51.265Z,17.47
2017-03-24T08:11:57.708Z,16.03
2017-03-24T08:13:02.596Z,17.20
2017-03-24T08:14:07.320Z,16.78
2017-03-24T08:15:12.052Z,18.53
2017-03-24T08:16:18.438Z,18.18
2017-03-24T08:17:23.238Z,19.30
2017-03-24T08:18:29.572Z,17.38
2017-03-24T08:19:34.548Z,19.63
2017-03-24T08:20:40.200Z,17.82
2017-03-24T08:21:44.804Z,18.02
2017-03-24T08:22:50.294Z,17.03
2017-03-24T08:23:55.072Z,18.53
2017-03-24T08:25:01.454Z,18.70
2017-03-24T08:26:06.957Z,18.33
2017-03-24T08:27:12.389Z,19.08
2017-03-24T08:28:17.985Z,19.80
2017-03-24T08:29:23.569Z,17.75
2017-03-24T08:30:29.109Z,18.23
2017-03-24T08:31:34.005Z,17.07
2017-03-24T08:32:40.344Z,17.35
2017-03-24T08:33:45.293Z,17.78
2017-03-24T08:34:50.879Z,16.10
2017-03-24T08:35:55.566Z,17.08
2017-03-24T08:37:01.153Z,16.98
2017-03-24T08:38:05.900Z,17.10
2017-03-24T08:39:10.547Z,16.33
2017-03-24T08:40:16.057Z,17.60
2017-03-24T08:41:21.653Z,16.13
2017-03-24T08:42:27.177Z,16.22
2017-03-24T08:43:32.001Z,23.17
2017-03-24T08:44:36.820Z,15.87
2017-03-24T08:45:43.266Z,18.68
2017-03-24T08:46:48.036Z,20.10
2017-03-24T08:47:53.505Z,16.87
2017-03-24T08:48:58.204Z,16.43
2017-03-24T08:50:04.668Z,18.45
2017-03-24T08:51:09.336Z,18.08
2017-03-24T08:52:14.962Z,18.03
2017-03-24T08:53:20.616Z,18.45
2017-03-24T08:54:26.136Z,19.02
2017-03-24T08:55:31.725Z,16.75
2017-03-24T08:56:37.458Z,18.00
2017-03-24T08:57:43.817Z,17.52
2017-03-24T08:58:48.730Z,16.88
2017-03-24T08:59:54.254Z,19.80
2017-03-24T09:00:59.725Z,21.07
2017-03-24T09:02:04.784Z,19.95
2017-03-24T09:03:11.178Z,22.95
2017-03-24T09:04:16.140Z,23.88
2017-03-24T09:05:22.600Z,21.72
2017-03-24T09:06:28.189Z,21.62
2017-03-24T09:07:34.614Z,23.07
2017-03-24T09:08:40.270Z,20.40
2017-03-24T09:09:47.785Z,22.62
2017-03-24T09:10:52.552Z,20.12
2017-03-24T09:11:59.037Z,22.38
2017-03-24T09:13:04.540Z,16.37
2017-03-24T09:14:09.377Z,16.37
2017-03-24T09:15:15.040Z,18.98
2017-03-24T09:16:21.208Z,17.52
2017-03-24T09:17:26.964Z,18.15
2017-03-24T09:18:31.825Z,17.90
2017-03-24T09:19:38.229Z,18.42
2017-03-24T09:20:42.988Z,18.37
2017-03-24T09:21:48.560Z,17.23
2017-03-24T09:22:54.917Z,16.37
2017-03-24T09:24:00.553Z,16.87
2017-03-24T09:25:05.413Z,17.37
2017-03-24T09:26:11.128Z,17.18
2017-03-24T09:27:17.345Z,16.30
2017-03-24T09:28:22.965Z,17.15
2017-03-24T09:29:27.874Z,16.25
2017-03-24T09:30:33.454Z,17.13
2017-03-24T09:31:39.156Z,16.02
2017-03-24T09:32:44.585Z,16.80
2017-03-24T09:33:50.101Z,17.28
2017-03-24T09:34:54.744Z,19.62
2017-03-24T09:36:00.386Z,18.72
2017-03-24T09:37:05.249Z,18.25
2017-03-24T09:38:09.956Z,16.05
2017-03-24T09:39:16.376Z,15.53
2017-03-24T09:40:22.017Z,14.78
2017-03-24T09:41:26.712Z,16.45
2017-03-24T09:42:31.438Z,17.18
2017-03-24T09:43:36.124Z,16.32
2017-03-24T09:44:41.717Z,17.05
2017-03-24T09:45:46.485Z,16.07
2017-03-24T09:46:51.965Z,14.70
2017-03-24T09:47:58.364Z,16.82
2017-03-24T09:49:03.141Z,17.83
2017-03-24T09:50:08.752Z,17.18
2017-03-24T09:51:14.382Z,16.65
2017-03-24T09:52:20.716Z,15.47
2017-03-24T09:53:25.552Z,14.18
2017-03-24T09:54:30.269Z,16.20
2017-03-24T09:55:35.933Z,16.85
2017-03-24T09:56:42.322Z,15.95
2017-03-24T09:57:47.105Z,17.50
2017-03-24T09:58:53.570Z,16.77
2017-03-24T09:59:58.256Z,17.38
2017-03-24T10:01:04.736Z,16.75
2017-03-24T10:02:10.205Z,19.23
2017-03-24T10:03:15.866Z,15.23
2017-03-24T10:04:20.744Z,15.80
2017-03-24T10:05:26.376Z,15.65
2017-03-24T10:06:32.669Z,15.80
2017-03-24T10:07:38.219Z,15.55
2017-03-24T10:08:43.892Z,17.32
2017-03-24T10:09:49.608Z,16.62
2017-03-24T10:10:54.437Z,17.73
2017-03-24T10:12:00.032Z,17.50
2017-03-24T10:13:06.376Z,16.65
2017-03-24T10:14:11.997Z,17.33
2017-03-24T10:15:17.017Z,16.78
2017-03-24T10:16:22.524Z,17.43
2017-03-24T10:17:27.880Z,17.30
2017-03-24T10:18:33.449Z,16.42
2017-03-24T10:19:39.745Z,15.03
2017-03-24T10:20:44.580Z,16.87
2017-03-24T10:21:50.704Z,16.85
2017-03-24T10:22:55.556Z,19.02
2017-03-24T10:24:01.176Z,18.20
2017-03-24T10:25:07.596Z,16.60
2017-03-24T10:26:12.404Z,19.13
2017-03-24T10:27:18.025Z,17.85
2017-03-24T10:28:23.605Z,18.15
2017-03-24T10:29:29.317Z,18.00
2017-03-24T10:30:35.548Z,18.48
2017-03-24T10:31:41.229Z,18.30
2017-03-24T10:32:46.109Z,16.87
2017-03-24T10:33:50.925Z,17.25
2017-03-24T10:34:56.313Z,17.32
2017-03-24T10:36:02.041Z,19.58
2017-03-24T10:37:07.697Z,19.82
2017-03-24T10:38:13.925Z,16.70
2017-03-24T10:39:18.862Z,16.02
2017-03-24T10:40:24.393Z,17.90
2017-03-24T10:41:30.003Z,16.47
2017-03-24T10:42:36.425Z,16.67
2017-03-24T10:43:41.198Z,17.35
2017-03-24T10:44:46.706Z,19.47
2017-03-24T10:45:52.327Z,17.47
2017-03-24T10:46:57.910Z,16.87
2017-03-24T10:48:02.736Z,16.53
2017-03-24T10:49:08.368Z,15.12
2017-03-24T10:50:14.813Z,18.05
2017-03-24T10:51:19.749Z,16.77
2017-03-24T10:52:26.170Z,16.32
2017-03-24T10:53:31.822Z,16.85
2017-03-24T10:54:37.674Z,17.73
2017-03-24T10:55:42.490Z,17.97
2017-03-24T10:56:47.194Z,17.02
2017-03-24T10:57:53.589Z,16.82
2017-03-24T10:58:58.441Z,16.45
2017-03-24T11:00:04.866Z,17.27
2017-03-24T11:01:10.433Z,17.12
2017-03-24T11:02:15.189Z,18.98
2017-03-24T11:03:20.819Z,16.77
2017-03-24T11:04:27.181Z,16.68
2017-03-24T11:05:32.010Z,17.65
2017-03-24T11:06:37.570Z,17.47
2017-03-24T11:07:42.977Z,15.67
2017-03-24T11:08:48.634Z,17.85
2017-03-24T11:09:54.868Z,15.95
2017-03-24T11:10:59.817Z,19.17
2017-03-24T11:12:06.085Z,17.05
2017-03-24T11:13:10.993Z,17.78
2017-03-24T11:14:17.353Z,16.50
2017-03-24T11:15:22.253Z,15.00
2017-03-24T11:16:27.608Z,16.95
2017-03-24T11:17:33.169Z,15.68
2017-03-24T11:18:38.798Z,17.65
2017-03-24T11:19:43.519Z,18.82
2017-03-24T11:20:49.977Z,16.22
2017-03-24T11:21:55.599Z,16.57
2017-03-24T11:23:00.502Z,17.77
2017-03-24T11:24:05.915Z,17.32
2017-03-24T11:25:11.556Z,18.10
2017-03-24T11:26:17.265Z,17.28
2017-03-24T11:27:22.625Z,18.72
2017-03-24T11:28:28.295Z,16.95
2017-03-24T11:29:33.089Z,16.97
2017-03-24T11:30:38.540Z,17.40
2017-03-24T11:31:44.200Z,14.72
2017-03-24T11:32:48.914Z,17.88
2017-03-24T11:33:55.344Z,16.40
2017-03-24T11:35:00.030Z,15.65
2017-03-24T11:36:06.460Z,18.87
2017-03-24T11:37:11.250Z,17.20
2017-03-24T11:38:16.884Z,17.10
2017-03-24T11:39:22.446Z,16.98
2017-03-24T11:40:28.073Z,19.12
2017-03-24T11:41:32.879Z,17.92
2017-03-24T11:42:39.171Z,17.58
2017-03-24T11:43:43.973Z,17.87
2017-03-24T11:44:49.528Z,19.28
2017-03-24T11:45:55.069Z,16.90
2017-03-24T11:47:00.653Z,18.97
2017-03-24T11:48:05.637Z,16.37
2017-03-24T11:49:11.945Z,17.52
2017-03-24T11:50:16.782Z,16.07
2017-03-24T11:51:22.300Z,16.37
2017-03-24T11:52:27.752Z,19.85
2017-03-24T11:53:33.423Z,16.85
2017-03-24T11:54:39.786Z,18.05
2017-03-24T11:55:44.561Z,17.42
2017-03-24T11:56:50.993Z,16.22
2017-03-24T11:57:56.589Z,16.43
2017-03-24T11:59:01.985Z,16.28
2017-03-24T12:00:08.221Z,17.68
2017-03-24T12:01:14.733Z,17.32
2017-03-24T12:02:20.273Z,16.23
2017-03-24T12:03:25.864Z,17.18
2017-03-24T12:04:30.877Z,16.95
2017-03-24T12:05:36.990Z,16.75
2017-03-24T12:06:41.953Z,18.47
2017-03-24T12:07:48.280Z,16.90
2017-03-24T12:08:53.936Z,17.65
2017-03-24T12:09:59.312Z,20.32
2017-03-24T12:11:04.901Z,16.57
2017-03-24T12:12:09.572Z,27.58
2017-03-24T12:13:15.954Z,15.65
2017-03-24T12:14:21.709Z,19.13
2017-03-24T12:15:26.448Z,21.37
2017-03-24T12:16:32.044Z,18.80
2017-03-24T12:17:37.569Z,21.00
2017-03-24T12:18:43.140Z,21.30
2017-03-24T12:19:48.779Z,25.62
2017-03-24T12:20:53.685Z,14.32
2017-03-24T12:21:59.933Z,18.30
2017-03-24T12:23:05.671Z,22.10
2017-03-24T12:24:11.231Z,15.57
2017-03-24T12:25:16.896Z,16.08
2017-03-24T12:26:22.437Z,17.18
2017-03-24T12:27:28.621Z,53.92
2017-03-24T12:28:34.256Z,28.70
2017-03-24T12:29:39.143Z,17.75
2017-03-24T12:30:44.797Z,16.82
2017-03-24T12:31:50.345Z,17.73
2017-03-24T12:32:56.804Z,17.32
2017-03-24T12:34:01.749Z,19.17
2017-03-24T12:35:08.361Z,15.48
2017-03-24T12:36:13.201Z,17.18
2017-03-24T12:37:19.486Z,17.05
2017-03-24T12:38:25.112Z,15.60
2017-03-24T12:39:30.032Z,15.43
2017-03-24T12:40:35.533Z,15.10
2017-03-24T12:41:40.349Z,15.33
2017-03-24T12:42:46.037Z,15.60
2017-03-24T12:43:51.473Z,19.65
2017-03-24T12:44:56.934Z,18.53
2017-03-24T12:46:02.537Z,17.25
2017-03-24T12:47:08.225Z,17.02
2017-03-24T12:48:14.576Z,18.15
2017-03-24T12:49:19.372Z,16.73
2017-03-24T12:50:25.818Z,15.13
2017-03-24T12:51:30.706Z,16.67
2017-03-24T12:52:36.370Z,14.75
2017-03-24T12:53:41.138Z,14.73
2017-03-24T12:54:46.742Z,15.53
2017-03-24T12:55:52.333Z,14.48
2017-03-24T12:56:57.869Z,15.70
2017-03-24T12:58:03.548Z,17.83
2017-03-24T12:59:09.224Z,14.98
2017-03-24T13:00:15.649Z,15.55
2017-03-24T13:01:21.304Z,14.95
2017-03-24T13:02:26.037Z,14.90
2017-03-24T13:03:31.720Z,15.95
2017-03-24T13:04:38.048Z,16.93
2017-03-24T13:05:42.733Z,14.88
2017-03-24T13:06:48.331Z,13.82
2017-03-24T13:07:53.916Z,14.02
2017-03-24T13:08:58.616Z,14.58
2017-03-24T13:10:03.400Z,15.60
2017-03-24T13:11:09.784Z,14.80
2017-03-24T13:12:14.534Z,13.67
2017-03-24T13:13:20.938Z,15.15
2017-03-24T13:14:26.721Z,14.90
2017-03-24T13:15:31.720Z,15.97
2017-03-24T13:16:37.120Z,14.20
2017-03-24T13:17:42.772Z,15.15
2017-03-24T13:18:49.048Z,14.75
2017-03-24T13:19:54.734Z,14.33
2017-03-24T13:20:59.712Z,14.53
2017-03-24T13:22:05.162Z,16.28
2017-03-24T13:23:09.886Z,13.80
2017-03-24T13:24:15.456Z,15.57
2017-03-24T13:25:21.132Z,13.47
2017-03-24T13:26:26.629Z,13.77
2017-03-24T13:27:32.077Z,15.23
2017-03-24T13:28:38.556Z,14.17
2017-03-24T13:29:44.210Z,18.55
2017-03-24T13:30:49.701Z,14.35
2017-03-24T13:31:55.406Z,13.83
2017-03-24T13:33:01.086Z,13.80
2017-03-24T13:34:06.729Z,14.12
2017-03-24T13:35:11.822Z,13.00
2017-03-24T13:36:18.124Z,13.65
2017-03-24T13:37:23.144Z,15.25
2017-03-24T13:38:28.753Z,15.05
2017-03-24T13:39:35.028Z,13.52
2017-03-24T13:40:39.809Z,14.07
2017-03-24T13:41:45.413Z,14.15
2017-03-24T13:42:51.076Z,15.12
2017-03-24T13:43:57.380Z,12.97
2017-03-24T13:45:02.278Z,12.07
2017-03-24T13:46:08.744Z,13.22
2017-03-24T13:47:13.497Z,12.88
2017-03-24T13:48:19.029Z,12.27
2017-03-24T13:49:24.632Z,13.48
2017-03-24T13:50:29.313Z,13.65
2017-03-24T13:51:36.246Z,12.20
2017-03-24T13:52:42.100Z,13.35
2017-03-24T13:53:46.818Z,11.53
2017-03-24T13:54:51.529Z,14.18
2017-03-24T13:55:57.861Z,17.93
2017-03-24T13:57:02.646Z,36.83
2017-03-24T13:58:08.298Z,12.42
2017-03-24T13:59:13.913Z,11.55
2017-03-24T14:00:19.252Z,13.07
2017-03-24T14:01:24.776Z,11.52
2017-03-24T14:02:30.334Z,13.80
2017-03-24T14:03:36.569Z,14.17